createdAt,value
2023-03-21T00:02:29.014Z,86.10
2023-03-21T00:05:16.048Z,86.72
2023-03-21T00:08:02.889Z,86.93
2023-03-21T00:10:47.967Z,86.84
2023-03-21T00:13:33.666Z,87.13
2023-03-21T00:19:27.573Z,88.17
2023-03-21T00:22:12.378Z,87.73
2023-03-21T00:24:57.812Z,87.66
2023-03-21T00:28:01.156Z,87.70
2023-03-21T00:30:48.389Z,87.92
2023-03-21T00:33:34.586Z,87.56
2023-03-21T00:36:19.925Z,87.06
2023-03-21T00:39:06.104Z,87.97
2023-03-21T00:41:51.413Z,89.05
2023-03-21T00:44:36.781Z,88.70
2023-03-21T00:47:23.066Z,88.54
2023-03-21T00:50:11.753Z,88.63
2023-03-21T00:52:56.836Z,89.12
2023-03-21T00:55:41.848Z,89.35
2023-03-21T00:58:27.102Z,89.54
2023-03-21T01:01:11.893Z,89.14
2023-03-21T01:04:03.953Z,89.20
2023-03-21T01:06:49.252Z,89.45
2023-03-21T01:09:33.880Z,89.64
2023-03-21T01:12:18.724Z,88.47
2023-03-21T01:15:03.661Z,89.85
2023-03-21T01:17:49.494Z,89.49
2023-03-21T01:20:34.332Z,89.98
2023-03-21T01:23:19.596Z,89.46
2023-03-21T01:26:05.312Z,89.71
2023-03-21T01:28:50.581Z,88.54
2023-03-21T01:31:35.907Z,88.63
2023-03-21T01:34:21.612Z,89.30
2023-03-21T01:37:06.790Z,88.67
2023-03-21T01:39:53.244Z,88.25
2023-03-21T01:42:39.474Z,88.82
2023-03-21T01:45:58.582Z,89.85
2023-03-21T01:48:44.630Z,89.62
2023-03-21T01:51:33.896Z,89.38
2023-03-21T01:54:25.742Z,89.75
2023-03-21T01:57:16.516Z,90.25
2023-03-21T02:00:13.010Z,89.85
2023-03-21T02:03:11.697Z,90.53
2023-03-21T02:06:17.145Z,90.56
2023-03-21T02:09:08.581Z,89.95
2023-03-21T02:11:54.882Z,90.41
2023-03-21T02:14:39.742Z,88.91
2023-03-21T02:17:46.881Z,90.38
2023-03-21T02:20:58.852Z,90.39
2023-03-21T02:23:58.973Z,90.46
2023-03-21T02:27:15.977Z,90.28
2023-03-21T02:30:45.543Z,90.95
2023-03-21T02:33:57.935Z,91.03
2023-03-21T02:36:48.459Z,90.58
2023-03-21T02:39:56.052Z,90.14
2023-03-21T02:43:00.954Z,90.15
2023-03-21T02:45:54.706Z,90.90
2023-03-21T02:48:50.927Z,90.66
2023-03-21T02:51:39.266Z,91.07
2023-03-21T02:54:41.917Z,90.47
2023-03-21T02:57:42.228Z,90.78
2023-03-21T03:00:31.209Z,90.65
2023-03-21T03:03:27.964Z,90.27
2023-03-21T03:06:21.154Z,90.86
2023-03-21T03:09:39.675Z,91.61
2023-03-21T03:12:34.524Z,90.28
2023-03-21T03:15:34.440Z,91.24
2023-03-21T03:18:31.555Z,91.86
2023-03-21T03:21:37.880Z,91.83
2023-03-21T03:24:47.424Z,91.10
2023-03-21T03:27:37.481Z,91.52
2023-03-21T03:30:32.280Z,91.52
2023-03-21T03:33:27.077Z,91.07
2023-03-21T03:36:30.527Z,92.00
2023-03-21T03:39:18.008Z,91.99
2023-03-21T03:42:27.156Z,91.25
2023-03-21T03:45:13.959Z,92.00
2023-03-21T03:48:08.018Z,91.49
2023-03-21T03:51:16.687Z,91.88
2023-03-21T03:54:10.868Z,90.74
2023-03-21T03:56:57.546Z,91.75
2023-03-21T03:59:44.842Z,91.99
2023-03-21T04:02:32.441Z,92.18
2023-03-21T04:05:21.032Z,91.58
2023-03-21T04:08:07.081Z,91.94
2023-03-21T04:10:52.340Z,91.36
2023-03-21T04:13:37.733Z,91.94
2023-03-21T04:16:23.395Z,91.57
2023-03-21T04:19:09.116Z,91.08
2023-03-21T04:21:54.198Z,91.93
2023-03-21T04:24:40.405Z,91.54
2023-03-21T04:27:25.278Z,91.40
2023-03-21T04:30:12.537Z,91.73
2023-03-21T04:32:57.328Z,91.10
2023-03-21T04:35:42.538Z,91.37
2023-03-21T04:38:30.581Z,92.00
2023-03-21T04:41:15.320Z,92.35
2023-03-21T04:44:01.753Z,92.50
2023-03-21T04:46:46.496Z,92.20
2023-03-21T04:49:31.820Z,92.56
2023-03-21T04:52:17.133Z,92.99
2023-03-21T04:55:02.310Z,92.70
2023-03-21T04:57:48.008Z,92.63
2023-03-21T05:00:37.773Z,93.12
2023-03-21T05:03:23.720Z,92.67
2023-03-21T05:06:10.582Z,92.58
2023-03-21T05:08:59.922Z,92.45
2023-03-21T05:11:44.721Z,92.35
2023-03-21T05:14:29.930Z,93.25
2023-03-21T05:17:23.036Z,93.53
2023-03-21T05:20:12.330Z,93.82
2023-03-21T05:22:57.302Z,93.55
2023-03-21T05:25:42.079Z,93.60
2023-03-21T05:28:31.434Z,94.33
2023-03-21T05:31:18.229Z,93.63
2023-03-21T05:34:03.442Z,93.43
2023-03-21T05:36:48.426Z,93.34
2023-03-21T05:39:33.116Z,93.13
2023-03-21T05:42:19.037Z,93.88
2023-03-21T05:45:04.579Z,93.33
2023-03-21T05:47:50.041Z,93.68
2023-03-21T05:50:34.965Z,93.22
2023-03-21T05:53:21.777Z,93.38
2023-03-21T05:56:08.824Z,93.23
2023-03-21T05:58:54.569Z,93.09
2023-03-21T06:01:39.543Z,93.90
2023-03-21T06:04:24.750Z,93.51
2023-03-21T06:07:10.693Z,93.10
2023-03-21T06:09:55.559Z,92.91
2023-03-21T06:12:40.307Z,93.10
2023-03-21T06:15:26.646Z,93.29
2023-03-21T06:18:11.767Z,93.14
2023-03-21T06:20:57.407Z,93.40
2023-03-21T06:23:43.057Z,93.75
2023-03-21T06:26:28.762Z,93.37
2023-03-21T06:29:14.311Z,93.31
2023-03-21T06:31:59.472Z,93.35
2023-03-21T06:34:45.006Z,93.11
2023-03-21T06:37:29.958Z,92.77
2023-03-21T06:40:15.315Z,92.83
2023-03-21T06:43:00.201Z,92.70
2023-03-21T06:45:45.648Z,92.56
2023-03-21T06:48:31.972Z,92.85
2023-03-21T06:51:17.158Z,92.60
2023-03-21T06:54:02.047Z,92.67
2023-03-21T06:56:48.003Z,92.48
2023-03-21T06:59:32.841Z,91.79
2023-03-21T07:02:17.889Z,92.10
2023-03-21T07:05:04.341Z,92.28
2023-03-21T07:07:49.666Z,92.18
2023-03-21T07:10:34.998Z,92.11
2023-03-21T07:13:19.911Z,91.17
2023-03-21T07:16:06.174Z,91.89
2023-03-21T07:18:51.125Z,92.17
2023-03-21T07:21:36.334Z,91.68
2023-03-21T07:24:21.243Z,91.86
2023-03-21T07:27:06.568Z,90.41
2023-03-21T07:29:51.446Z,90.80
2023-03-21T07:32:37.814Z,90.15
2023-03-21T07:35:22.806Z,89.60
2023-03-21T07:38:08.096Z,90.44
2023-03-21T07:40:53.357Z,89.86
2023-03-21T07:43:39.712Z,89.96
2023-03-21T07:46:25.064Z,88.60
2023-03-21T07:49:10.270Z,89.42
2023-03-21T07:51:55.253Z,89.15
2023-03-21T07:54:40.261Z,89.64
2023-03-21T07:57:25.542Z,89.36
2023-03-21T08:00:12.512Z,87.76
2023-03-21T08:02:59.832Z,88.16
2023-03-21T08:05:45.396Z,87.93
2023-03-21T08:08:31.710Z,88.40
2023-03-21T08:11:18.008Z,88.07
2023-03-21T08:14:04.271Z,87.95
2023-03-21T08:16:49.333Z,88.18
2023-03-21T08:19:35.974Z,88.48
2023-03-21T08:22:21.575Z,87.77
2023-03-21T08:25:08.378Z,88.13
2023-03-21T08:27:53.897Z,87.59
2023-03-21T08:30:39.020Z,88.41
2023-03-21T08:33:27.033Z,87.94
2023-03-21T08:36:12.313Z,88.39
2023-03-21T08:39:05.464Z,87.63
2023-03-21T08:41:50.665Z,87.20
2023-03-21T08:44:36.355Z,87.35
2023-03-21T08:47:22.038Z,86.88
2023-03-21T08:50:09.276Z,85.89
2023-03-21T08:52:54.695Z,85.96
2023-03-21T08:55:39.693Z,85.20
2023-03-21T08:58:25.926Z,84.90
2023-03-21T09:01:15.441Z,84.00
2023-03-21T09:04:00.858Z,83.39
2023-03-21T09:06:47.635Z,83.74
2023-03-21T09:09:32.497Z,82.93
2023-03-21T09:12:17.651Z,81.66
2023-03-21T09:15:03.566Z,83.35
2023-03-21T09:17:52.314Z,81.01
2023-03-21T09:20:38.302Z,81.56
2023-03-21T09:23:24.282Z,80.78
2023-03-21T09:26:09.618Z,81.35
2023-03-21T09:28:55.959Z,81.45
2023-03-21T09:31:41.235Z,81.35
2023-03-21T09:34:26.684Z,79.63
2023-03-21T09:37:13.227Z,81.54
2023-03-21T09:39:58.303Z,80.25
2023-03-21T09:43:32.292Z,80.26
2023-03-21T09:46:42.743Z,79.57
2023-03-21T09:49:36.249Z,78.86
2023-03-21T09:52:29.707Z,78.87
2023-03-21T09:55:21.694Z,78.28
2023-03-21T09:58:13.751Z,78.75
2023-03-21T10:01:10.698Z,77.82
2023-03-21T10:04:01.124Z,78.63
2023-03-21T10:06:55.331Z,78.39
2023-03-21T10:09:44.598Z,77.76
2023-03-21T10:12:32.638Z,77.10
2023-03-21T10:15:20.793Z,77.35
2023-03-21T10:18:08.594Z,78.43
2023-03-21T10:20:55.653Z,78.48
2023-03-21T10:23:40.438Z,79.20
2023-03-21T10:26:29.285Z,79.61
2023-03-21T10:29:16.637Z,80.10
2023-03-21T10:32:02.949Z,79.77
2023-03-21T10:37:44.648Z,78.57
2023-03-21T10:40:29.837Z,78.46
2023-03-21T10:43:27.306Z,76.56
2023-03-21T10:46:18.845Z,76.77
2023-03-21T10:49:07.652Z,75.93
2023-03-21T10:51:56.386Z,76.00
2023-03-21T10:54:42.466Z,75.47
2023-03-21T10:57:27.873Z,76.23
2023-03-21T11:00:22.076Z,75.12
2023-03-21T11:03:20.630Z,76.40
2023-03-21T11:06:22.176Z,75.42
2023-03-21T11:09:20.622Z,76.08
2023-03-21T11:12:11.784Z,75.91
2023-03-21T11:14:57.900Z,74.78
2023-03-21T11:17:45.458Z,76.48
2023-03-21T11:20:31.468Z,76.22
2023-03-21T11:23:19.449Z,75.96
2023-03-21T11:26:11.536Z,76.82
2023-03-21T11:28:57.348Z,76.16
2023-03-21T11:31:42.235Z,75.82
2023-03-21T11:34:47.336Z,74.88
2023-03-21T11:37:37.800Z,74.30
2023-03-21T11:40:31.741Z,74.20
2023-03-21T11:43:20.251Z,74.26
2023-03-21T11:46:13.365Z,73.97
2023-03-21T11:49:00.337Z,73.45
2023-03-21T11:51:53.959Z,73.64
2023-03-21T11:54:57.707Z,73.46
2023-03-21T11:57:47.600Z,74.37
2023-03-21T12:00:43.133Z,74.48
2023-03-21T12:03:48.766Z,74.01
2023-03-21T12:06:38.017Z,74.44
2023-03-21T12:09:34.841Z,73.49
2023-03-21T12:12:47.398Z,74.09
2023-03-21T12:15:38.762Z,73.77
2023-03-21T12:18:49.644Z,74.27
2023-03-21T12:22:00.489Z,73.32
2023-03-21T12:24:50.421Z,73.15
2023-03-21T12:28:02.815Z,74.16
2023-03-21T12:30:59.995Z,73.45
2023-03-21T12:33:57.046Z,73.69
2023-03-21T12:37:07.074Z,72.77
2023-03-21T12:39:58.251Z,73.55
2023-03-21T12:43:26.123Z,73.71
2023-03-21T12:46:39.319Z,71.03
2023-03-21T12:49:42.892Z,72.22
2023-03-21T12:52:40.291Z,72.41
2023-03-21T12:55:29.929Z,72.90
2023-03-21T12:58:19.637Z,73.18
2023-03-21T13:01:06.655Z,73.41
2023-03-21T13:04:31.622Z,73.42
2023-03-21T13:07:20.302Z,73.07
2023-03-21T13:10:15.682Z,74.86
2023-03-21T13:13:10.921Z,75.73
2023-03-21T13:16:16.351Z,76.19
2023-03-21T13:19:11.278Z,77.56
2023-03-21T13:22:18.227Z,78.58
2023-03-21T13:25:21.954Z,80.67
2023-03-21T13:28:07.279Z,80.86
2023-03-21T13:30:52.570Z,80.76
2023-03-21T13:33:44.945Z,81.11
2023-03-21T13:36:32.416Z,82.27
2023-03-21T13:39:20.709Z,82.28
2023-03-21T13:42:18.301Z,80.68
2023-03-21T13:45:11.698Z,82.06
2023-03-21T13:48:01.126Z,82.40
2023-03-21T13:51:00.859Z,82.41
2023-03-21T13:54:08.550Z,82.30
2023-03-21T13:56:59.953Z,82.77
2023-03-21T13:59:46.164Z,83.22
2023-03-21T14:02:38.382Z,83.76
2023-03-21T14:05:26.367Z,84.47
2023-03-21T14:08:27.904Z,84.90
2023-03-21T14:11:19.175Z,84.11
2023-03-21T14:14:05.123Z,84.77
2023-03-21T14:16:53.471Z,84.59
2023-03-21T14:19:39.110Z,84.71
2023-03-21T14:22:24.173Z,84.21
2023-03-21T14:25:14.577Z,83.71
2023-03-21T14:28:04.255Z,84.90
2023-03-21T14:30:55.919Z,84.94
2023-03-21T14:33:47.751Z,85.61
2023-03-21T14:36:43.136Z,85.44
2023-03-21T14:39:33.652Z,86.32
2023-03-21T14:42:20.742Z,85.88
2023-03-21T14:45:14.591Z,86.93
2023-03-21T14:48:08.508Z,86.58
2023-03-21T14:50:56.219Z,87.51
2023-03-21T14:53:42.895Z,87.46
2023-03-21T14:56:29.121Z,87.80
2023-03-21T14:59:18.748Z,87.85
2023-03-21T15:02:15.496Z,88.21
2023-03-21T15:05:10.590Z,87.71
2023-03-21T15:08:01.870Z,88.36
2023-03-21T15:11:09.665Z,88.39
2023-03-21T15:13:55.673Z,88.38
2023-03-21T15:16:41.297Z,88.43
2023-03-21T15:19:35.478Z,88.38
2023-03-21T15:22:37.244Z,88.33
2023-03-21T15:25:28.766Z,88.46
2023-03-21T15:28:14.908Z,89.06
2023-03-21T15:31:00.195Z,88.96
2023-03-21T15:33:51.084Z,89.55
2023-03-21T15:36:48.466Z,89.07
2023-03-21T15:39:36.137Z,89.34
2023-03-21T15:42:47.273Z,89.99
2023-03-21T15:45:32.183Z,90.00
2023-03-21T15:48:23.138Z,90.62
2023-03-21T15:51:21.370Z,90.11
2023-03-21T15:54:15.266Z,90.17
2023-03-21T15:57:09.662Z,90.42
2023-03-21T16:00:03.121Z,90.83
2023-03-21T16:02:54.723Z,89.58
2023-03-21T16:05:42.609Z,89.51
2023-03-21T16:08:32.418Z,89.96
2023-03-21T16:11:29.837Z,89.21
2023-03-21T16:14:14.881Z,89.16
2023-03-21T16:17:00.018Z,88.51
2023-03-21T16:19:45.136Z,89.36
2023-03-21T16:22:35.162Z,88.81
2023-03-21T16:25:21.878Z,89.07
2023-03-21T16:28:16.378Z,88.82
2023-03-21T16:31:01.492Z,89.33
2023-03-21T16:33:47.377Z,88.90
2023-03-21T16:36:37.102Z,89.78
2023-03-21T16:39:25.231Z,89.63
2023-03-21T16:42:12.791Z,89.35
2023-03-21T16:44:58.935Z,89.48
2023-03-21T16:47:44.728Z,89.78
2023-03-21T16:50:34.619Z,89.54
2023-03-21T16:53:19.779Z,89.29
2023-03-21T16:56:07.681Z,89.71
2023-03-21T16:58:56.060Z,89.82
2023-03-21T17:01:45.986Z,89.77
2023-03-21T17:04:31.557Z,89.99
2023-03-21T17:07:17.973Z,89.94
2023-03-21T17:10:03.488Z,89.65
2023-03-21T17:12:49.119Z,89.26
2023-03-21T17:15:34.358Z,89.58
2023-03-21T17:18:19.340Z,89.65
2023-03-21T17:21:15.961Z,89.21
2023-03-21T17:24:00.882Z,89.15
2023-03-21T17:26:45.788Z,89.69
2023-03-21T17:29:31.324Z,89.54
2023-03-21T17:32:17.991Z,90.01
2023-03-21T17:35:04.231Z,90.14
2023-03-21T17:37:53.776Z,90.15
2023-03-21T17:40:39.197Z,90.55
2023-03-21T17:43:24.317Z,90.60
2023-03-21T17:46:25.134Z,90.11
2023-03-21T17:49:14.237Z,90.52
2023-03-21T17:51:59.549Z,90.73
2023-03-21T17:54:44.402Z,90.75
2023-03-21T17:57:29.306Z,90.90
2023-03-21T18:00:18.324Z,90.75
2023-03-21T18:03:03.566Z,90.61
2023-03-21T18:05:49.723Z,90.75
2023-03-21T18:08:35.267Z,90.96
2023-03-21T18:11:22.868Z,91.21
2023-03-21T18:14:16.248Z,90.77
2023-03-21T18:17:03.377Z,91.02
2023-03-21T18:19:48.839Z,90.76
2023-03-21T18:22:34.171Z,90.67
2023-03-21T18:25:19.163Z,90.55
2023-03-21T18:28:11.539Z,90.00
2023-03-21T18:31:09.576Z,90.29
2023-03-21T18:33:56.092Z,90.20
2023-03-21T18:36:42.736Z,90.74
2023-03-21T18:39:28.169Z,90.66
2023-03-21T18:42:17.925Z,90.40
2023-03-21T18:45:13.910Z,89.54
2023-03-21T18:47:59.148Z,89.54
2023-03-21T18:50:44.133Z,89.13
2023-03-21T18:53:34.858Z,88.75
2023-03-21T18:56:58.028Z,88.85
2023-03-21T18:59:26.248Z,88.89
2023-03-21T19:02:15.288Z,88.98
2023-03-21T19:05:01.590Z,89.03
2023-03-21T19:07:47.859Z,88.71
2023-03-21T19:10:34.881Z,88.35
2023-03-21T19:13:22.433Z,87.69
2023-03-21T19:16:11.240Z,88.17
2023-03-21T19:18:57.655Z,88.25
2023-03-21T19:21:43.406Z,88.28
2023-03-21T19:24:29.138Z,88.59
2023-03-21T19:27:17.195Z,88.19
2023-03-21T19:30:13.893Z,88.94
2023-03-21T19:33:01.535Z,88.43
2023-03-21T19:35:48.069Z,88.24
2023-03-21T19:38:33.355Z,88.33
2023-03-21T19:41:22.551Z,88.67
2023-03-21T19:44:08.042Z,88.47
2023-03-21T19:46:54.674Z,88.22
2023-03-21T19:50:27.727Z,88.67
2023-03-21T19:52:49.872Z,88.06
2023-03-21T19:55:36.536Z,88.50
2023-03-21T19:58:22.791Z,88.48
2023-03-21T20:01:12.388Z,89.09
2023-03-21T20:03:59.460Z,88.77
2023-03-21T20:06:53.426Z,88.79
2023-03-21T20:09:51.457Z,88.28
2023-03-21T20:12:37.795Z,88.12
2023-03-21T20:15:26.719Z,88.08
2023-03-21T20:18:14.234Z,88.69
2023-03-21T20:21:02.173Z,88.13
2023-03-21T20:23:51.109Z,88.51
2023-03-21T20:26:37.328Z,88.83
2023-03-21T20:32:33.296Z,88.67
2023-03-21T20:35:28.916Z,88.44
2023-03-21T20:38:27.057Z,88.37
2023-03-21T20:41:12.916Z,88.53
2023-03-21T20:47:07.808Z,88.64
2023-03-21T20:49:52.699Z,88.66
2023-03-21T20:53:05.627Z,88.84
2023-03-21T20:55:47.708Z,89.14
2023-03-21T20:58:59.389Z,89.04
2023-03-21T21:01:46.164Z,88.57
2023-03-21T21:04:52.498Z,88.11
2023-03-21T21:07:38.738Z,88.05
2023-03-21T21:10:26.865Z,87.61
2023-03-21T21:13:12.144Z,87.61
2023-03-21T21:15:58.672Z,87.56
2023-03-21T21:18:43.918Z,87.17
2023-03-21T21:21:30.967Z,86.88
2023-03-21T21:24:16.457Z,86.72
2023-03-21T21:27:01.408Z,86.64
2023-03-21T21:29:48.029Z,86.85
2023-03-21T21:32:33.697Z,86.99
2023-03-21T21:35:20.564Z,86.52
2023-03-21T21:38:05.574Z,86.34
2023-03-21T21:40:52.150Z,86.02
2023-03-21T21:43:37.042Z,86.27
2023-03-21T21:46:22.043Z,86.09
2023-03-21T21:49:07.002Z,85.51
2023-03-21T21:51:52.513Z,85.95
2023-03-21T21:54:39.510Z,85.53
2023-03-21T21:57:24.728Z,85.71
2023-03-21T22:00:13.408Z,85.83
2023-03-21T22:03:00.483Z,85.99
2023-03-21T22:05:47.967Z,85.41
2023-03-21T22:08:33.775Z,85.28
2023-03-21T22:11:19.238Z,85.20
2023-03-21T22:14:04.378Z,85.14
2023-03-21T22:16:49.308Z,85.26
2023-03-21T22:19:35.544Z,84.82
2023-03-21T22:22:20.673Z,84.81
2023-03-21T22:25:08.316Z,85.29
2023-03-21T22:27:53.336Z,84.21
2023-03-21T22:30:38.887Z,84.87
2023-03-21T22:33:25.645Z,85.42
2023-03-21T22:36:11.722Z,85.29
2023-03-21T22:38:57.004Z,85.26
2023-03-21T22:41:41.849Z,85.34
2023-03-21T22:44:34.310Z,85.04
2023-03-21T22:47:19.989Z,85.61
2023-03-21T22:50:06.473Z,85.10
2023-03-21T22:52:52.961Z,84.74
2023-03-21T22:55:38.846Z,84.93
2023-03-21T22:58:24.158Z,84.74
2023-03-21T23:01:09.050Z,84.79
2023-03-21T23:03:54.293Z,84.31
2023-03-21T23:06:39.436Z,84.32
2023-03-21T23:09:24.920Z,84.88
2023-03-21T23:12:10.454Z,84.08
2023-03-21T23:14:55.776Z,84.68
2023-03-21T23:17:41.024Z,84.85
2023-03-21T23:20:26.187Z,85.07
2023-03-21T23:23:11.314Z,85.16
2023-03-21T23:25:57.009Z,84.68
2023-03-21T23:28:42.398Z,85.16
2023-03-21T23:31:28.025Z,84.57
2023-03-21T23:34:13.518Z,85.07
2023-03-21T23:36:58.635Z,85.00
2023-03-21T23:39:45.197Z,85.18
2023-03-21T23:42:31.224Z,85.01
2023-03-21T23:45:16.164Z,85.10
2023-03-21T23:48:01.347Z,84.79
2023-03-21T23:50:46.096Z,85.60
2023-03-21T23:53:31.448Z,85.78
2023-03-21T23:56:21.842Z,85.82
2023-03-21T23:59:07.474Z,85.96
